TAM3080 SBSP-SBFL
Flight info
| Callsign | TAM3080 |
|---|---|
| Flight time | 0h 50m |
| Altitude | 34000 |
| Route | MADNI UZ92 PUBIS |
| Aircraft | A320/M-SDE3FGHIRWY/LB1 |
Departure
| Time | 2026-04-22 03:15 |
|---|---|
| Airport | Congonhas–Deputado Freitas Nobre Airport (SBSP) |
Arrival
| Time | 2026-04-22 04:06 |
|---|---|
| Airport | Hercílio Luz International Airport (SBFL) |
| Time | Latitude | Longitude | Altitude | Speed | Heading |
|---|---|---|---|---|---|
| 2026-04-22 02:10 | -23.62783 | -46.65779 | 2601 ft | 0 kts | 237° |
| 2026-04-22 02:33 | -23.62783 | -46.65778 | 2601 ft | 0 kts | 237° |
| 2026-04-22 02:36 | -23.62783 | -46.65779 | 2601 ft | 0 kts | 237° |
| 2026-04-22 02:36 | -23.62783 | -46.65778 | 2601 ft | 0 kts | 237° |
| 2026-04-22 03:01 | -23.62770 | -46.65757 | 2601 ft | 4 kts | 238° |
| 2026-04-22 03:02 | -23.62761 | -46.65739 | 2602 ft | 2 kts | 232° |
| 2026-04-22 03:02 | -23.62755 | -46.65729 | 2602 ft | 2 kts | 240° |
| 2026-04-22 03:02 | -23.62746 | -46.65723 | 2602 ft | 1 kts | 258° |
| 2026-04-22 03:02 | -23.62745 | -46.65723 | 2601 ft | 0 kts | 260° |
| 2026-04-22 03:03 | -23.62746 | -46.65724 | 2601 ft | 0 kts | 260° |
| 2026-04-22 03:09 | -23.62746 | -46.65726 | 2601 ft | 2 kts | 260° |
| 2026-04-22 03:09 | -23.62734 | -46.65739 | 2601 ft | 3 kts | 338° |
| 2026-04-22 03:09 | -23.62705 | -46.65738 | 2602 ft | 5 kts | 358° |
| 2026-04-22 03:09 | -23.62668 | -46.65754 | 2602 ft | 7 kts | 330° |
| 2026-04-22 03:10 | -23.62618 | -46.65788 | 2602 ft | 10 kts | 327° |
| 2026-04-22 03:10 | -23.62553 | -46.65833 | 2602 ft | 13 kts | 328° |
| 2026-04-22 03:10 | -23.62471 | -46.65889 | 2601 ft | 15 kts | 327° |
| 2026-04-22 03:10 | -23.62372 | -46.65958 | 2600 ft | 18 kts | 327° |
| 2026-04-22 03:11 | -23.62311 | -46.66002 | 2600 ft | 9 kts | 327° |
| 2026-04-22 03:11 | -23.62251 | -46.66042 | 2600 ft | 12 kts | 332° |
| 2026-04-22 03:11 | -23.62170 | -46.66088 | 2599 ft | 15 kts | 328° |
| 2026-04-22 03:11 | -23.62125 | -46.66120 | 2592 ft | 0 kts | 327° |
| 2026-04-22 03:13 | -23.62120 | -46.66124 | 2594 ft | 3 kts | 327° |
| 2026-04-22 03:13 | -23.62081 | -46.66136 | 2591 ft | 8 kts | 356° |
| 2026-04-22 03:13 | -23.62046 | -46.66088 | 2596 ft | 10 kts | 105° |
| 2026-04-22 03:14 | -23.62094 | -46.66044 | 2597 ft | 0 kts | 146° |
| 2026-04-22 03:14 | -23.62203 | -46.65967 | 2599 ft | 56 kts | 148° |
| 2026-04-22 03:14 | -23.62771 | -46.65575 | 2608 ft | 134 kts | 147° |
| 2026-04-22 03:15 | -23.63623 | -46.64981 | 3161 ft | 142 kts | 147° |
| 2026-04-22 03:15 | -23.64515 | -46.64375 | 3572 ft | 160 kts | 148° |
| 2026-04-22 03:15 | -23.65582 | -46.63841 | 3749 ft | 183 kts | 168° |
| 2026-04-22 03:15 | -23.66977 | -46.63853 | 3810 ft | 217 kts | 186° |
| 2026-04-22 03:16 | -23.68602 | -46.64114 | 3908 ft | 254 kts | 187° |
| 2026-04-22 03:16 | -23.70402 | -46.64370 | 4607 ft | 265 kts | 185° |
| 2026-04-22 03:16 | -23.72257 | -46.64601 | 5446 ft | 271 kts | 185° |
| 2026-04-22 03:16 | -23.74108 | -46.64906 | 6299 ft | 275 kts | 198° |
| 2026-04-22 03:17 | -23.75699 | -46.66058 | 7062 ft | 281 kts | 230° |
| 2026-04-22 03:17 | -23.76600 | -46.67957 | 7378 ft | 285 kts | 250° |
| 2026-04-22 03:17 | -23.77244 | -46.70003 | 7475 ft | 285 kts | 250° |
| 2026-04-22 03:17 | -23.77924 | -46.72032 | 7491 ft | 284 kts | 244° |
| 2026-04-22 03:18 | -23.78846 | -46.73931 | 7491 ft | 283 kts | 238° |
| 2026-04-22 03:18 | -23.79926 | -46.75734 | 7484 ft | 283 kts | 234° |
| 2026-04-22 03:18 | -23.81064 | -46.77482 | 7479 ft | 282 kts | 233° |
| 2026-04-22 03:18 | -23.82211 | -46.79230 | 7474 ft | 282 kts | 233° |
| 2026-04-22 03:19 | -23.83343 | -46.80985 | 7532 ft | 286 kts | 234° |
| 2026-04-22 03:19 | -23.84481 | -46.82787 | 8319 ft | 288 kts | 234° |
| 2026-04-22 03:19 | -23.85611 | -46.84602 | 9151 ft | 290 kts | 233° |
| 2026-04-22 03:19 | -23.86954 | -46.86258 | 9918 ft | 294 kts | 220° |
| 2026-04-22 03:20 | -23.88646 | -46.87573 | 10349 ft | 308 kts | 207° |
| 2026-04-22 03:20 | -23.90677 | -46.88440 | 10569 ft | 327 kts | 192° |
| 2026-04-22 03:20 | -23.92953 | -46.88857 | 11095 ft | 335 kts | 188° |
| 2026-04-22 03:20 | -23.95274 | -46.89253 | 11751 ft | 340 kts | 188° |
| 2026-04-22 03:21 | -23.97624 | -46.89665 | 12421 ft | 344 kts | 188° |
| 2026-04-22 03:21 | -24.00000 | -46.90085 | 13121 ft | 348 kts | 189° |
| 2026-04-22 03:21 | -24.02399 | -46.90510 | 13801 ft | 352 kts | 189° |
| 2026-04-22 03:21 | -24.04827 | -46.90941 | 14425 ft | 355 kts | 189° |
| 2026-04-22 03:22 | -24.07274 | -46.91377 | 15046 ft | 358 kts | 189° |
| 2026-04-22 03:22 | -24.09747 | -46.91820 | 15679 ft | 361 kts | 190° |
| 2026-04-22 03:22 | -24.12238 | -46.92268 | 16315 ft | 364 kts | 190° |
| 2026-04-22 03:22 | -24.14746 | -46.92717 | 16943 ft | 367 kts | 190° |
| 2026-04-22 03:23 | -24.17281 | -46.93168 | 17593 ft | 370 kts | 190° |
| 2026-04-22 03:23 | -24.19832 | -46.93619 | 18241 ft | 373 kts | 191° |
| 2026-04-22 03:23 | -24.22404 | -46.94072 | 18818 ft | 376 kts | 191° |
| 2026-04-22 03:23 | -24.24995 | -46.94532 | 19371 ft | 379 kts | 191° |
| 2026-04-22 03:24 | -24.27607 | -46.94999 | 19946 ft | 382 kts | 191° |
| 2026-04-22 03:24 | -24.30245 | -46.95473 | 20528 ft | 385 kts | 191° |
| 2026-04-22 03:24 | -24.32863 | -46.95943 | 21090 ft | 388 kts | 192° |
| 2026-04-22 03:24 | -24.35538 | -46.96418 | 21651 ft | 391 kts | 192° |
| 2026-04-22 03:25 | -24.38239 | -46.96893 | 22215 ft | 394 kts | 192° |
| 2026-04-22 03:25 | -24.40963 | -46.97373 | 22783 ft | 397 kts | 192° |
| 2026-04-22 03:25 | -24.43705 | -46.97859 | 23376 ft | 400 kts | 192° |
| 2026-04-22 03:25 | -24.46467 | -46.98351 | 23887 ft | 403 kts | 193° |
| 2026-04-22 03:26 | -24.49241 | -46.98849 | 24382 ft | 405 kts | 193° |
| 2026-04-22 03:26 | -24.52031 | -46.99347 | 24890 ft | 407 kts | 193° |
| 2026-04-22 03:26 | -24.54831 | -46.99845 | 25397 ft | 408 kts | 193° |
| 2026-04-22 03:26 | -24.57641 | -47.00353 | 25909 ft | 409 kts | 194° |
| 2026-04-22 03:27 | -24.60377 | -47.01165 | 26406 ft | 406 kts | 204° |
| 2026-04-22 03:27 | -24.62932 | -47.02466 | 26890 ft | 404 kts | 212° |
| 2026-04-22 03:27 | -24.65304 | -47.04115 | 27388 ft | 404 kts | 215° |
| 2026-04-22 03:27 | -24.67668 | -47.05796 | 27859 ft | 405 kts | 215° |
| 2026-04-22 03:28 | -24.70040 | -47.07480 | 28305 ft | 407 kts | 215° |
| 2026-04-22 03:28 | -24.72422 | -47.09169 | 28741 ft | 408 kts | 215° |
| 2026-04-22 03:28 | -24.74813 | -47.10863 | 29172 ft | 410 kts | 215° |
| 2026-04-22 03:28 | -24.77189 | -47.12547 | 29586 ft | 411 kts | 215° |
| 2026-04-22 03:29 | -24.79602 | -47.14260 | 30011 ft | 413 kts | 215° |
| 2026-04-22 03:29 | -24.82021 | -47.15981 | 30390 ft | 415 kts | 215° |
| 2026-04-22 03:29 | -24.84449 | -47.17713 | 30741 ft | 416 kts | 215° |
| 2026-04-22 03:29 | -24.86881 | -47.19447 | 31102 ft | 416 kts | 215° |
| 2026-04-22 03:30 | -24.89308 | -47.21169 | 31573 ft | 413 kts | 214° |
| 2026-04-22 03:30 | -24.91717 | -47.22876 | 32091 ft | 410 kts | 214° |
| 2026-04-22 03:30 | -24.94108 | -47.24574 | 32614 ft | 407 kts | 215° |
| 2026-04-22 03:30 | -24.96475 | -47.26257 | 33147 ft | 403 kts | 215° |
| 2026-04-22 03:31 | -24.98824 | -47.27926 | 33670 ft | 400 kts | 215° |
| 2026-04-22 03:31 | -25.01158 | -47.29587 | 34020 ft | 399 kts | 215° |
| 2026-04-22 03:31 | -25.05773 | -47.32883 | 34106 ft | 391 kts | 215° |
| 2026-04-22 03:32 | -25.10296 | -47.36125 | 34106 ft | 390 kts | 215° |
| 2026-04-22 03:32 | -25.14842 | -47.39377 | 34106 ft | 389 kts | 215° |
| 2026-04-22 03:33 | -25.19387 | -47.42626 | 34106 ft | 389 kts | 215° |
| 2026-04-22 03:33 | -25.23930 | -47.45879 | 34106 ft | 389 kts | 215° |
| 2026-04-22 03:34 | -25.28466 | -47.49136 | 34117 ft | 389 kts | 215° |
| 2026-04-22 03:34 | -25.33000 | -47.52394 | 34117 ft | 389 kts | 215° |
| 2026-04-22 03:35 | -25.37533 | -47.55662 | 34117 ft | 388 kts | 215° |
| 2026-04-22 03:35 | -25.42054 | -47.58923 | 34116 ft | 388 kts | 215° |
| 2026-04-22 03:36 | -25.45816 | -47.61630 | 34119 ft | 388 kts | 215° |
| 2026-04-22 03:36 | -25.50350 | -47.64882 | 34120 ft | 388 kts | 215° |
| 2026-04-22 03:37 | -25.54870 | -47.68141 | 34113 ft | 387 kts | 216° |
| 2026-04-22 03:37 | -25.59379 | -47.71401 | 34128 ft | 387 kts | 216° |
| 2026-04-22 03:38 | -25.63886 | -47.74654 | 34130 ft | 386 kts | 216° |
| 2026-04-22 03:38 | -25.68379 | -47.77910 | 34126 ft | 386 kts | 216° |
| 2026-04-22 03:39 | -25.72872 | -47.81170 | 34107 ft | 385 kts | 216° |
| 2026-04-22 03:39 | -25.75113 | -47.82795 | 33661 ft | 385 kts | 216° |
| 2026-04-22 03:39 | -25.77320 | -47.84393 | 33240 ft | 382 kts | 216° |
| 2026-04-22 03:40 | -25.79541 | -47.86000 | 32823 ft | 380 kts | 216° |
| 2026-04-22 03:40 | -25.81748 | -47.87594 | 32403 ft | 377 kts | 216° |
| 2026-04-22 03:40 | -25.83945 | -47.89182 | 31986 ft | 375 kts | 216° |
| 2026-04-22 03:40 | -25.86123 | -47.90759 | 31582 ft | 373 kts | 216° |
| 2026-04-22 03:41 | -25.88289 | -47.92332 | 31181 ft | 371 kts | 216° |
| 2026-04-22 03:41 | -25.90442 | -47.93897 | 30782 ft | 369 kts | 217° |
| 2026-04-22 03:41 | -25.92588 | -47.95458 | 30391 ft | 368 kts | 217° |
| 2026-04-22 03:41 | -25.94724 | -47.97011 | 29969 ft | 367 kts | 217° |
| 2026-04-22 03:42 | -25.96853 | -47.98561 | 29581 ft | 364 kts | 217° |
| 2026-04-22 03:42 | -25.98968 | -48.00100 | 29206 ft | 362 kts | 217° |
| 2026-04-22 03:42 | -26.01071 | -48.01635 | 28809 ft | 361 kts | 217° |
| 2026-04-22 03:42 | -26.03212 | -48.03094 | 28398 ft | 363 kts | 210° |
| 2026-04-22 03:43 | -26.05572 | -48.04116 | 27992 ft | 366 kts | 203° |
| 2026-04-22 03:43 | -26.07994 | -48.05014 | 27570 ft | 367 kts | 203° |
| 2026-04-22 03:43 | -26.10383 | -48.05904 | 27154 ft | 367 kts | 203° |
| 2026-04-22 03:43 | -26.12807 | -48.06809 | 26729 ft | 368 kts | 203° |
| 2026-04-22 03:44 | -26.15243 | -48.07721 | 26300 ft | 369 kts | 203° |
| 2026-04-22 03:44 | -26.17684 | -48.08638 | 25858 ft | 371 kts | 203° |
| 2026-04-22 03:44 | -26.20136 | -48.09562 | 25399 ft | 373 kts | 203° |
| 2026-04-22 03:44 | -26.22609 | -48.10494 | 24938 ft | 376 kts | 203° |
| 2026-04-22 03:45 | -26.25096 | -48.11433 | 24478 ft | 378 kts | 203° |
| 2026-04-22 03:45 | -26.27575 | -48.12367 | 24105 ft | 376 kts | 203° |
| 2026-04-22 03:45 | -26.30069 | -48.13306 | 23739 ft | 376 kts | 202° |
| 2026-04-22 03:45 | -26.32523 | -48.14227 | 23177 ft | 369 kts | 202° |
| 2026-04-22 03:46 | -26.34939 | -48.15135 | 22475 ft | 363 kts | 202° |
| 2026-04-22 03:46 | -26.37289 | -48.16016 | 22015 ft | 350 kts | 202° |
| 2026-04-22 03:46 | -26.39564 | -48.16869 | 21571 ft | 338 kts | 202° |
| 2026-04-22 03:46 | -26.41764 | -48.17694 | 21141 ft | 328 kts | 202° |
| 2026-04-22 03:47 | -26.43868 | -48.18486 | 20727 ft | 319 kts | 202° |
| 2026-04-22 03:47 | -26.45956 | -48.19274 | 20320 ft | 317 kts | 202° |
| 2026-04-22 03:47 | -26.48052 | -48.20072 | 19904 ft | 319 kts | 202° |
| 2026-04-22 03:47 | -26.50166 | -48.20879 | 19482 ft | 322 kts | 202° |
| 2026-04-22 03:48 | -26.52295 | -48.21689 | 19067 ft | 325 kts | 201° |
| 2026-04-22 03:48 | -26.54446 | -48.22505 | 18643 ft | 327 kts | 201° |
| 2026-04-22 03:48 | -26.56609 | -48.23323 | 18187 ft | 330 kts | 201° |
| 2026-04-22 03:48 | -26.58786 | -48.24143 | 17735 ft | 331 kts | 201° |
| 2026-04-22 03:49 | -26.60966 | -48.24965 | 17307 ft | 331 kts | 201° |
| 2026-04-22 03:49 | -26.63149 | -48.25789 | 16881 ft | 331 kts | 201° |
| 2026-04-22 03:49 | -26.65334 | -48.26615 | 16450 ft | 332 kts | 201° |
| 2026-04-22 03:49 | -26.67509 | -48.27434 | 16015 ft | 325 kts | 201° |
| 2026-04-22 03:50 | -26.69624 | -48.28228 | 15612 ft | 317 kts | 201° |
| 2026-04-22 03:50 | -26.71728 | -48.29019 | 15203 ft | 319 kts | 201° |
| 2026-04-22 03:50 | -26.73835 | -48.29821 | 14792 ft | 321 kts | 201° |
| 2026-04-22 03:50 | -26.75958 | -48.30631 | 14381 ft | 323 kts | 201° |
| 2026-04-22 03:51 | -26.78092 | -48.31446 | 13967 ft | 325 kts | 201° |
| 2026-04-22 03:51 | -26.80214 | -48.32256 | 13530 ft | 327 kts | 201° |
| 2026-04-22 03:51 | -26.82366 | -48.33072 | 13105 ft | 327 kts | 200° |
| 2026-04-22 03:51 | -26.84521 | -48.33889 | 12697 ft | 327 kts | 200° |
| 2026-04-22 03:52 | -26.86671 | -48.34704 | 12278 ft | 322 kts | 200° |
| 2026-04-22 03:52 | -26.88753 | -48.35493 | 11883 ft | 310 kts | 200° |
| 2026-04-22 03:52 | -26.90765 | -48.36257 | 11496 ft | 300 kts | 200° |
| 2026-04-22 03:52 | -26.92702 | -48.37038 | 11123 ft | 290 kts | 206° |
| 2026-04-22 03:53 | -26.94468 | -48.38127 | 10930 ft | 294 kts | 211° |
| 2026-04-22 03:53 | -26.96266 | -48.39290 | 10748 ft | 300 kts | 211° |
| 2026-04-22 03:53 | -26.98084 | -48.40453 | 10563 ft | 301 kts | 210° |
| 2026-04-22 03:53 | -26.99904 | -48.41612 | 10373 ft | 300 kts | 210° |
| 2026-04-22 03:54 | -27.01723 | -48.42773 | 10185 ft | 300 kts | 211° |
| 2026-04-22 03:54 | -27.03506 | -48.43913 | 10004 ft | 297 kts | 211° |
| 2026-04-22 03:54 | -27.05298 | -48.45056 | 9808 ft | 295 kts | 210° |
| 2026-04-22 03:54 | -27.07083 | -48.46198 | 9615 ft | 294 kts | 211° |
| 2026-04-22 03:55 | -27.08861 | -48.47340 | 9427 ft | 293 kts | 211° |
| 2026-04-22 03:55 | -27.10627 | -48.48475 | 9234 ft | 293 kts | 211° |
| 2026-04-22 03:55 | -27.12394 | -48.49610 | 8974 ft | 291 kts | 211° |
| 2026-04-22 03:55 | -27.14151 | -48.50735 | 8787 ft | 290 kts | 211° |
| 2026-04-22 03:56 | -27.15902 | -48.51859 | 8606 ft | 289 kts | 211° |
| 2026-04-22 03:56 | -27.17648 | -48.52981 | 8424 ft | 288 kts | 211° |
| 2026-04-22 03:56 | -27.19386 | -48.54098 | 8246 ft | 287 kts | 211° |
| 2026-04-22 03:56 | -27.21124 | -48.55206 | 8065 ft | 287 kts | 208° |
| 2026-04-22 03:57 | -27.22958 | -48.56004 | 7870 ft | 287 kts | 198° |
| 2026-04-22 03:57 | -27.24862 | -48.56670 | 7670 ft | 286 kts | 198° |
| 2026-04-22 03:57 | -27.26760 | -48.57336 | 7466 ft | 285 kts | 198° |
| 2026-04-22 03:57 | -27.28635 | -48.57996 | 7266 ft | 280 kts | 198° |
| 2026-04-22 03:58 | -27.30484 | -48.58650 | 7065 ft | 276 kts | 198° |
| 2026-04-22 03:58 | -27.32300 | -48.59296 | 6871 ft | 272 kts | 198° |
| 2026-04-22 03:58 | -27.34090 | -48.59933 | 6677 ft | 268 kts | 198° |
| 2026-04-22 03:58 | -27.35855 | -48.60561 | 6486 ft | 264 kts | 198° |
| 2026-04-22 03:59 | -27.37593 | -48.61178 | 6290 ft | 260 kts | 198° |
| 2026-04-22 03:59 | -27.39303 | -48.61783 | 6105 ft | 255 kts | 198° |
| 2026-04-22 03:59 | -27.40976 | -48.62375 | 5926 ft | 249 kts | 198° |
| 2026-04-22 03:59 | -27.42614 | -48.62955 | 5743 ft | 244 kts | 198° |
| 2026-04-22 04:00 | -27.44215 | -48.63522 | 5569 ft | 238 kts | 198° |
| 2026-04-22 04:00 | -27.45778 | -48.64075 | 5404 ft | 233 kts | 198° |
| 2026-04-22 04:00 | -27.47312 | -48.64621 | 5238 ft | 228 kts | 198° |
| 2026-04-22 04:00 | -27.48801 | -48.65147 | 5076 ft | 221 kts | 198° |
| 2026-04-22 04:01 | -27.50284 | -48.65504 | 4867 ft | 218 kts | 190° |
| 2026-04-22 04:01 | -27.51784 | -48.65760 | 4492 ft | 218 kts | 189° |
| 2026-04-22 04:01 | -27.53283 | -48.66018 | 4104 ft | 216 kts | 189° |
| 2026-04-22 04:01 | -27.54742 | -48.66265 | 3762 ft | 208 kts | 189° |
| 2026-04-22 04:02 | -27.56161 | -48.66503 | 3437 ft | 205 kts | 189° |
| 2026-04-22 04:02 | -27.57558 | -48.66740 | 3110 ft | 205 kts | 189° |
| 2026-04-22 04:02 | -27.58979 | -48.66864 | 2783 ft | 205 kts | 172° |
| 2026-04-22 04:02 | -27.60300 | -48.66301 | 2453 ft | 205 kts | 144° |
| 2026-04-22 04:03 | -27.61228 | -48.65121 | 2101 ft | 200 kts | 118° |
| 2026-04-22 04:03 | -27.61909 | -48.63813 | 1832 ft | 190 kts | 117° |
| 2026-04-22 04:03 | -27.62569 | -48.62554 | 1539 ft | 182 kts | 119° |
| 2026-04-22 04:03 | -27.63209 | -48.61359 | 1291 ft | 174 kts | 120° |
| 2026-04-22 04:04 | -27.63824 | -48.60216 | 1067 ft | 167 kts | 120° |
| 2026-04-22 04:04 | -27.64410 | -48.59129 | 869 ft | 155 kts | 121° |
| 2026-04-22 04:04 | -27.64962 | -48.58106 | 667 ft | 150 kts | 121° |
| 2026-04-22 04:04 | -27.65499 | -48.57111 | 472 ft | 148 kts | 120° |
| 2026-04-22 04:05 | -27.66031 | -48.56126 | 279 ft | 146 kts | 120° |
| 2026-04-22 04:05 | -27.66558 | -48.55142 | 89 ft | 146 kts | 120° |
| 2026-04-22 04:05 | -27.67064 | -48.54197 | 43 ft | 128 kts | 123° |
| 2026-04-22 04:05 | -27.67454 | -48.53477 | 25 ft | 72 kts | 121° |
| 2026-04-22 04:06 | -27.67621 | -48.53162 | 26 ft | 42 kts | 122° |
| 2026-04-22 04:06 | -27.67703 | -48.53056 | 30 ft | 10 kts | 161° |
| 2026-04-22 04:06 | -27.67722 | -48.53051 | 30 ft | 4 kts | 170° |
| 2026-04-22 04:06 | -27.67769 | -48.53045 | 27 ft | 7 kts | 174° |
| 2026-04-22 04:07 | -27.67824 | -48.53044 | 23 ft | 9 kts | 180° |
| 2026-04-22 04:07 | -27.67874 | -48.53046 | 21 ft | 0 kts | 183° |